sensor_id;sensor_type;location;lat;lon;timestamp;temperature;humidity
11107;DHT22;5607;48.302;14.294;2023-11-25T00:00:26;3.20;16.40
11107;DHT22;5607;48.302;14.294;2023-11-25T00:03:13;3.20;17.80
11107;DHT22;5607;48.302;14.294;2023-11-25T00:05:59;3.30;3.70
11107;DHT22;5607;48.302;14.294;2023-11-25T00:08:45;3.30;1.00
11107;DHT22;5607;48.302;14.294;2023-11-25T00:11:32;3.30;1.20
11107;DHT22;5607;48.302;14.294;2023-11-25T00:14:18;3.40;1.00
11107;DHT22;5607;48.302;14.294;2023-11-25T00:17:04;3.40;1.00
11107;DHT22;5607;48.302;14.294;2023-11-25T00:19:51;3.40;1.00
11107;DHT22;5607;48.302;14.294;2023-11-25T00:22:37;3.30;1.00
11107;DHT22;5607;48.302;14.294;2023-11-25T00:25:23;3.40;1.00
11107;DHT22;5607;48.302;14.294;2023-11-25T00:28:10;3.50;1.00
11107;DHT22;5607;48.302;14.294;2023-11-25T00:30:56;3.40;1.00
11107;DHT22;5607;48.302;14.294;2023-11-25T00:33:43;3.50;1.00
11107;DHT22;5607;48.302;14.294;2023-11-25T00:36:29;3.50;1.00
11107;DHT22;5607;48.302;14.294;2023-11-25T00:39:17;3.50;1.00
11107;DHT22;5607;48.302;14.294;2023-11-25T00:42:06;3.60;1.00
11107;DHT22;5607;48.302;14.294;2023-11-25T00:44:52;3.60;1.00
11107;DHT22;5607;48.302;14.294;2023-11-25T00:47:39;3.60;1.00
11107;DHT22;5607;48.302;14.294;2023-11-25T00:50:28;3.60;1.00
11107;DHT22;5607;48.302;14.294;2023-11-25T00:53:14;3.50;1.00
11107;DHT22;5607;48.302;14.294;2023-11-25T00:56:00;3.60;1.00
11107;DHT22;5607;48.302;14.294;2023-11-25T00:58:46;3.70;1.00
11107;DHT22;5607;48.302;14.294;2023-11-25T01:01:33;3.70;1.00
11107;DHT22;5607;48.302;14.294;2023-11-25T01:04:19;3.60;1.00
11107;DHT22;5607;48.302;14.294;2023-11-25T01:07:06;3.70;1.00
11107;DHT22;5607;48.302;14.294;2023-11-25T01:09:52;3.50;1.00
11107;DHT22;5607;48.302;14.294;2023-11-25T01:12:38;3.40;1.00
11107;DHT22;5607;48.302;14.294;2023-11-25T01:15:24;3.30;1.00
11107;DHT22;5607;48.302;14.294;2023-11-25T01:18:11;3.40;1.00
11107;DHT22;5607;48.302;14.294;2023-11-25T01:20:57;3.40;1.00
11107;DHT22;5607;48.302;14.294;2023-11-25T01:23:43;3.40;1.00
11107;DHT22;5607;48.302;14.294;2023-11-25T01:26:30;3.30;1.00
11107;DHT22;5607;48.302;14.294;2023-11-25T01:29:16;3.40;1.00
11107;DHT22;5607;48.302;14.294;2023-11-25T01:32:03;3.40;1.00
11107;DHT22;5607;48.302;14.294;2023-11-25T01:34:51;3.40;1.00
11107;DHT22;5607;48.302;14.294;2023-11-25T01:37:38;3.40;1.00
11107;DHT22;5607;48.302;14.294;2023-11-25T01:40:24;3.40;1.00
11107;DHT22;5607;48.302;14.294;2023-11-25T01:43:11;3.40;1.00
11107;DHT22;5607;48.302;14.294;2023-11-25T01:46:01;3.50;1.00
11107;DHT22;5607;48.302;14.294;2023-11-25T01:48:47;3.60;1.00
11107;DHT22;5607;48.302;14.294;2023-11-25T01:51:34;3.70;1.00
11107;DHT22;5607;48.302;14.294;2023-11-25T01:54:21;3.90;1.00
11107;DHT22;5607;48.302;14.294;2023-11-25T01:57:07;3.90;1.00
11107;DHT22;5607;48.302;14.294;2023-11-25T01:59:54;4.00;1.00
11107;DHT22;5607;48.302;14.294;2023-11-25T02:02:41;3.90;1.00
11107;DHT22;5607;48.302;14.294;2023-11-25T02:05:28;3.90;1.00
11107;DHT22;5607;48.302;14.294;2023-11-25T02:08:15;3.90;1.00
11107;DHT22;5607;48.302;14.294;2023-11-25T02:11:01;3.70;1.00
11107;DHT22;5607;48.302;14.294;2023-11-25T02:13:47;3.50;1.00
11107;DHT22;5607;48.302;14.294;2023-11-25T02:16:33;3.60;1.00
11107;DHT22;5607;48.302;14.294;2023-11-25T02:19:20;3.70;1.00
11107;DHT22;5607;48.302;14.294;2023-11-25T02:22:08;3.50;1.00
11107;DHT22;5607;48.302;14.294;2023-11-25T02:24:54;3.40;1.00
11107;DHT22;5607;48.302;14.294;2023-11-25T02:27:40;3.30;1.00
11107;DHT22;5607;48.302;14.294;2023-11-25T02:30:26;3.40;1.00
11107;DHT22;5607;48.302;14.294;2023-11-25T02:33:13;3.40;1.00
11107;DHT22;5607;48.302;14.294;2023-11-25T02:36:00;3.50;1.00
11107;DHT22;5607;48.302;14.294;2023-11-25T02:38:47;3.40;1.00
11107;DHT22;5607;48.302;14.294;2023-11-25T02:41:33;3.30;1.00
11107;DHT22;5607;48.302;14.294;2023-11-25T02:44:21;3.20;1.00
11107;DHT22;5607;48.302;14.294;2023-11-25T02:47:07;3.30;1.00
11107;DHT22;5607;48.302;14.294;2023-11-25T02:49:54;3.30;1.00
11107;DHT22;5607;48.302;14.294;2023-11-25T02:52:40;3.40;1.00
11107;DHT22;5607;48.302;14.294;2023-11-25T02:55:26;3.40;1.00
11107;DHT22;5607;48.302;14.294;2023-11-25T02:58:13;3.50;1.00
11107;DHT22;5607;48.302;14.294;2023-11-25T03:00:59;3.50;1.00
11107;DHT22;5607;48.302;14.294;2023-11-25T03:03:53;3.20;1.00
11107;DHT22;5607;48.302;14.294;2023-11-25T03:06:39;3.20;1.00
11107;DHT22;5607;48.302;14.294;2023-11-25T03:09:25;3.20;1.00
11107;DHT22;5607;48.302;14.294;2023-11-25T03:12:12;3.20;1.00
11107;DHT22;5607;48.302;14.294;2023-11-25T03:14:58;3.30;1.00
11107;DHT22;5607;48.302;14.294;2023-11-25T03:17:44;3.30;1.00
11107;DHT22;5607;48.302;14.294;2023-11-25T03:20:30;3.30;1.00
11107;DHT22;5607;48.302;14.294;2023-11-25T03:23:16;3.20;1.00
11107;DHT22;5607;48.302;14.294;2023-11-25T03:26:03;3.20;1.00
11107;DHT22;5607;48.302;14.294;2023-11-25T03:28:51;3.10;1.00
11107;DHT22;5607;48.302;14.294;2023-11-25T03:31:41;3.00;7.00
11107;DHT22;5607;48.302;14.294;2023-11-25T03:34:27;3.00;20.20
11107;DHT22;5607;48.302;14.294;2023-11-25T03:37:13;3.00;5.60
11107;DHT22;5607;48.302;14.294;2023-11-25T03:40:00;2.90;16.90
11107;DHT22;5607;48.302;14.294;2023-11-25T03:42:46;2.70;1.00
11107;DHT22;5607;48.302;14.294;2023-11-25T03:45:32;2.70;1.00
11107;DHT22;5607;48.302;14.294;2023-11-25T03:48:18;2.80;1.00
11107;DHT22;5607;48.302;14.294;2023-11-25T03:51:05;2.80;1.00
11107;DHT22;5607;48.302;14.294;2023-11-25T03:53:51;2.90;1.00
11107;DHT22;5607;48.302;14.294;2023-11-25T03:56:38;3.00;1.00
11107;DHT22;5607;48.302;14.294;2023-11-25T03:59:24;3.00;1.00
11107;DHT22;5607;48.302;14.294;2023-11-25T04:02:10;3.00;1.00
11107;DHT22;5607;48.302;14.294;2023-11-25T04:04:57;3.00;1.00
11107;DHT22;5607;48.302;14.294;2023-11-25T04:07:43;3.00;1.00
11107;DHT22;5607;48.302;14.294;2023-11-25T04:10:29;3.00;1.00
11107;DHT22;5607;48.302;14.294;2023-11-25T04:13:15;3.00;1.00
11107;DHT22;5607;48.302;14.294;2023-11-25T04:16:02;3.00;1.00
11107;DHT22;5607;48.302;14.294;2023-11-25T04:18:49;3.00;1.00
11107;DHT22;5607;48.302;14.294;2023-11-25T04:21:35;3.00;1.00
11107;DHT22;5607;48.302;14.294;2023-11-25T04:24:24;3.00;1.00
11107;DHT22;5607;48.302;14.294;2023-11-25T04:27:13;3.10;1.00
11107;DHT22;5607;48.302;14.294;2023-11-25T04:29:59;3.10;1.00
11107;DHT22;5607;48.302;14.294;2023-11-25T04:32:46;3.00;1.00
11107;DHT22;5607;48.302;14.294;2023-11-25T04:35:33;2.90;1.00
11107;DHT22;5607;48.302;14.294;2023-11-25T04:38:19;2.80;1.00
11107;DHT22;5607;48.302;14.294;2023-11-25T04:41:06;2.70;1.00
11107;DHT22;5607;48.302;14.294;2023-11-25T04:43:52;2.80;1.00
11107;DHT22;5607;48.302;14.294;2023-11-25T04:46:38;2.80;1.00
11107;DHT22;5607;48.302;14.294;2023-11-25T04:49:25;2.90;1.00
11107;DHT22;5607;48.302;14.294;2023-11-25T04:52:11;2.90;1.00
11107;DHT22;5607;48.302;14.294;2023-11-25T04:54:58;2.90;1.00
11107;DHT22;5607;48.302;14.294;2023-11-25T04:57:44;2.70;1.00
11107;DHT22;5607;48.302;14.294;2023-11-25T05:00:30;2.60;1.00
11107;DHT22;5607;48.302;14.294;2023-11-25T05:03:16;2.60;1.00
11107;DHT22;5607;48.302;14.294;2023-11-25T05:06:02;2.60;1.00
11107;DHT22;5607;48.302;14.294;2023-11-25T05:08:49;2.60;1.00
11107;DHT22;5607;48.302;14.294;2023-11-25T05:11:35;2.60;1.00
11107;DHT22;5607;48.302;14.294;2023-11-25T05:14:23;2.60;1.00
11107;DHT22;5607;48.302;14.294;2023-11-25T05:17:10;2.60;1.00
11107;DHT22;5607;48.302;14.294;2023-11-25T05:19:56;2.70;1.00
11107;DHT22;5607;48.302;14.294;2023-11-25T05:22:43;2.70;1.00
11107;DHT22;5607;48.302;14.294;2023-11-25T05:25:30;2.70;1.00
11107;DHT22;5607;48.302;14.294;2023-11-25T05:28:16;2.80;1.00
11107;DHT22;5607;48.302;14.294;2023-11-25T05:31:02;2.70;1.00
11107;DHT22;5607;48.302;14.294;2023-11-25T05:33:48;2.80;1.00
11107;DHT22;5607;48.302;14.294;2023-11-25T05:36:35;2.70;1.00
11107;DHT22;5607;48.302;14.294;2023-11-25T05:39:21;2.70;1.00
11107;DHT22;5607;48.302;14.294;2023-11-25T05:42:07;2.70;1.00
11107;DHT22;5607;48.302;14.294;2023-11-25T05:44:54;2.60;1.00
11107;DHT22;5607;48.302;14.294;2023-11-25T05:47:41;2.60;1.00
11107;DHT22;5607;48.302;14.294;2023-11-25T05:50:28;2.60;1.00
11107;DHT22;5607;48.302;14.294;2023-11-25T05:53:14;2.60;1.00
11107;DHT22;5607;48.302;14.294;2023-11-25T05:56:00;2.60;1.00
11107;DHT22;5607;48.302;14.294;2023-11-25T05:58:46;2.60;99.90
11107;DHT22;5607;48.302;14.294;2023-11-25T06:01:34;2.60;99.90
11107;DHT22;5607;48.302;14.294;2023-11-25T06:04:20;2.60;99.90
11107;DHT22;5607;48.302;14.294;2023-11-25T06:07:07;2.70;99.90
11107;DHT22;5607;48.302;14.294;2023-11-25T06:09:53;2.70;99.90
11107;DHT22;5607;48.302;14.294;2023-11-25T06:12:39;2.70;99.90
11107;DHT22;5607;48.302;14.294;2023-11-25T06:15:26;2.60;99.90
11107;DHT22;5607;48.302;14.294;2023-11-25T06:18:12;2.60;99.90
11107;DHT22;5607;48.302;14.294;2023-11-25T06:21:00;2.60;99.90
11107;DHT22;5607;48.302;14.294;2023-11-25T06:23:49;2.60;99.90
11107;DHT22;5607;48.302;14.294;2023-11-25T06:26:36;2.60;99.90
11107;DHT22;5607;48.302;14.294;2023-11-25T06:29:22;2.60;99.90
11107;DHT22;5607;48.302;14.294;2023-11-25T06:32:09;2.60;99.90
11107;DHT22;5607;48.302;14.294;2023-11-25T06:34:55;2.60;99.90
11107;DHT22;5607;48.302;14.294;2023-11-25T06:37:44;2.60;99.90
11107;DHT22;5607;48.302;14.294;2023-11-25T06:40:31;2.50;99.90
11107;DHT22;5607;48.302;14.294;2023-11-25T06:43:19;2.40;99.90
11107;DHT22;5607;48.302;14.294;2023-11-25T06:46:05;2.40;99.90
11107;DHT22;5607;48.302;14.294;2023-11-25T06:48:51;2.40;99.90
11107;DHT22;5607;48.302;14.294;2023-11-25T06:51:40;2.40;99.90
11107;DHT22;5607;48.302;14.294;2023-11-25T06:54:27;2.50;99.90
11107;DHT22;5607;48.302;14.294;2023-11-25T06:57:13;2.50;99.90
11107;DHT22;5607;48.302;14.294;2023-11-25T07:00:01;2.40;99.90
11107;DHT22;5607;48.302;14.294;2023-11-25T07:02:47;2.40;99.90
11107;DHT22;5607;48.302;14.294;2023-11-25T07:05:34;2.40;99.90
11107;DHT22;5607;48.302;14.294;2023-11-25T07:08:21;2.40;99.90
11107;DHT22;5607;48.302;14.294;2023-11-25T07:11:07;2.40;99.90
11107;DHT22;5607;48.302;14.294;2023-11-25T07:13:56;2.50;99.90
11107;DHT22;5607;48.302;14.294;2023-11-25T07:16:43;2.50;99.90
11107;DHT22;5607;48.302;14.294;2023-11-25T07:19:31;2.60;99.90
11107;DHT22;5607;48.302;14.294;2023-11-25T07:22:17;2.70;99.90
11107;DHT22;5607;48.302;14.294;2023-11-25T07:25:04;2.70;99.90
11107;DHT22;5607;48.302;14.294;2023-11-25T07:27:51;2.80;99.90
11107;DHT22;5607;48.302;14.294;2023-11-25T07:30:37;2.80;99.90
11107;DHT22;5607;48.302;14.294;2023-11-25T07:33:23;2.80;99.90
11107;DHT22;5607;48.302;14.294;2023-11-25T07:36:09;2.80;99.90
11107;DHT22;5607;48.302;14.294;2023-11-25T07:38:56;2.70;99.90
11107;DHT22;5607;48.302;14.294;2023-11-25T07:41:43;2.80;99.90
11107;DHT22;5607;48.302;14.294;2023-11-25T07:44:30;2.80;99.90
11107;DHT22;5607;48.302;14.294;2023-11-25T07:47:16;2.70;99.90
11107;DHT22;5607;48.302;14.294;2023-11-25T07:50:03;2.60;99.90
11107;DHT22;5607;48.302;14.294;2023-11-25T07:52:49;2.60;1.00
11107;DHT22;5607;48.302;14.294;2023-11-25T07:55:36;2.80;1.00
11107;DHT22;5607;48.302;14.294;2023-11-25T07:58:22;2.90;99.90
11107;DHT22;5607;48.302;14.294;2023-11-25T08:01:12;2.90;99.90
11107;DHT22;5607;48.302;14.294;2023-11-25T08:03:58;2.90;99.90
11107;DHT22;5607;48.302;14.294;2023-11-25T08:06:46;2.70;99.90
11107;DHT22;5607;48.302;14.294;2023-11-25T08:09:32;2.80;99.90
11107;DHT22;5607;48.302;14.294;2023-11-25T08:12:18;2.90;99.90
11107;DHT22;5607;48.302;14.294;2023-11-25T08:15:05;2.90;99.90
11107;DHT22;5607;48.302;14.294;2023-11-25T08:17:51;3.00;99.90
11107;DHT22;5607;48.302;14.294;2023-11-25T08:20:38;3.20;99.90
11107;DHT22;5607;48.302;14.294;2023-11-25T08:23:26;3.30;99.90
11107;DHT22;5607;48.302;14.294;2023-11-25T08:26:19;3.20;99.90
11107;DHT22;5607;48.302;14.294;2023-11-25T08:29:05;3.20;99.90
11107;DHT22;5607;48.302;14.294;2023-11-25T08:31:52;3.20;99.90
11107;DHT22;5607;48.302;14.294;2023-11-25T08:34:38;3.40;99.90
11107;DHT22;5607;48.302;14.294;2023-11-25T08:37:24;3.50;99.90
11107;DHT22;5607;48.302;14.294;2023-11-25T08:40:13;3.40;99.90
11107;DHT22;5607;48.302;14.294;2023-11-25T08:43:02;3.30;99.90
11107;DHT22;5607;48.302;14.294;2023-11-25T08:45:54;3.30;99.90
11107;DHT22;5607;48.302;14.294;2023-11-25T08:48:40;3.40;99.90
11107;DHT22;5607;48.302;14.294;2023-11-25T08:51:28;3.40;99.90
11107;DHT22;5607;48.302;14.294;2023-11-25T08:54:15;3.20;99.90
11107;DHT22;5607;48.302;14.294;2023-11-25T08:57:04;3.30;99.90
11107;DHT22;5607;48.302;14.294;2023-11-25T08:59:53;3.30;99.90
11107;DHT22;5607;48.302;14.294;2023-11-25T09:02:43;3.30;99.90
11107;DHT22;5607;48.302;14.294;2023-11-25T09:05:30;3.30;99.90
11107;DHT22;5607;48.302;14.294;2023-11-25T09:08:17;3.30;99.90
11107;DHT22;5607;48.302;14.294;2023-11-25T09:11:04;3.40;99.90
11107;DHT22;5607;48.302;14.294;2023-11-25T09:13:50;3.40;99.90
11107;DHT22;5607;48.302;14.294;2023-11-25T09:16:36;3.50;99.90
11107;DHT22;5607;48.302;14.294;2023-11-25T09:19:22;3.60;99.90
11107;DHT22;5607;48.302;14.294;2023-11-25T09:22:09;3.70;99.90
11107;DHT22;5607;48.302;14.294;2023-11-25T09:24:57;4.00;99.90
11107;DHT22;5607;48.302;14.294;2023-11-25T09:27:44;4.00;99.90
11107;DHT22;5607;48.302;14.294;2023-11-25T09:30:31;4.10;99.90
11107;DHT22;5607;48.302;14.294;2023-11-25T09:33:17;4.10;99.90
11107;DHT22;5607;48.302;14.294;2023-11-25T09:36:03;4.00;99.90
11107;DHT22;5607;48.302;14.294;2023-11-25T09:38:49;3.80;99.90
11107;DHT22;5607;48.302;14.294;2023-11-25T09:41:37;3.90;99.90
11107;DHT22;5607;48.302;14.294;2023-11-25T09:44:23;3.80;99.90
11107;DHT22;5607;48.302;14.294;2023-11-25T09:47:10;3.90;99.90
11107;DHT22;5607;48.302;14.294;2023-11-25T09:49:57;3.80;99.90
11107;DHT22;5607;48.302;14.294;2023-11-25T09:52:49;3.80;99.90
11107;DHT22;5607;48.302;14.294;2023-11-25T09:55:36;3.90;99.90
11107;DHT22;5607;48.302;14.294;2023-11-25T09:58:24;4.10;99.90
11107;DHT22;5607;48.302;14.294;2023-11-25T10:01:10;4.20;99.90
11107;DHT22;5607;48.302;14.294;2023-11-25T10:03:58;4.00;99.90
11107;DHT22;5607;48.302;14.294;2023-11-25T10:06:44;4.00;99.90
11107;DHT22;5607;48.302;14.294;2023-11-25T10:09:37;4.10;99.90
11107;DHT22;5607;48.302;14.294;2023-11-25T10:12:23;4.30;99.90
11107;DHT22;5607;48.302;14.294;2023-11-25T10:15:09;4.40;99.90
11107;DHT22;5607;48.302;14.294;2023-11-25T10:17:56;4.50;99.90
11107;DHT22;5607;48.302;14.294;2023-11-25T10:20:43;4.50;99.90
11107;DHT22;5607;48.302;14.294;2023-11-25T10:23:29;4.70;99.90
11107;DHT22;5607;48.302;14.294;2023-11-25T10:26:16;4.80;99.90
11107;DHT22;5607;48.302;14.294;2023-11-25T10:29:04;4.80;99.90
11107;DHT22;5607;48.302;14.294;2023-11-25T10:31:54;4.50;99.90
11107;DHT22;5607;48.302;14.294;2023-11-25T10:34:42;4.40;99.90
11107;DHT22;5607;48.302;14.294;2023-11-25T10:37:30;4.30;99.90
11107;DHT22;5607;48.302;14.294;2023-11-25T10:40:17;4.40;99.90
11107;DHT22;5607;48.302;14.294;2023-11-25T10:43:04;4.50;99.90
11107;DHT22;5607;48.302;14.294;2023-11-25T10:46:00;4.30;99.90
11107;DHT22;5607;48.302;14.294;2023-11-25T10:48:46;4.40;99.90
11107;DHT22;5607;48.302;14.294;2023-11-25T10:51:37;4.10;99.90
11107;DHT22;5607;48.302;14.294;2023-11-25T10:54:24;4.10;99.90
11107;DHT22;5607;48.302;14.294;2023-11-25T10:57:17;4.20;99.90
11107;DHT22;5607;48.302;14.294;2023-11-25T11:00:04;4.40;99.90
11107;DHT22;5607;48.302;14.294;2023-11-25T11:03:00;4.40;99.90
11107;DHT22;5607;48.302;14.294;2023-11-25T11:05:54;4.10;99.90
11107;DHT22;5607;48.302;14.294;2023-11-25T11:08:45;4.10;99.90
11107;DHT22;5607;48.302;14.294;2023-11-25T11:11:39;4.10;99.90
11107;DHT22;5607;48.302;14.294;2023-11-25T11:14:36;4.00;99.90
11107;DHT22;5607;48.302;14.294;2023-11-25T11:20:20;4.10;99.90
11107;DHT22;5607;48.302;14.294;2023-11-25T11:23:07;4.10;99.90
11107;DHT22;5607;48.302;14.294;2023-11-25T11:31:56;4.10;99.90
11107;DHT22;5607;48.302;14.294;2023-11-25T11:34:45;4.00;99.90
11107;DHT22;5607;48.302;14.294;2023-11-25T11:37:36;3.90;99.90
11107;DHT22;5607;48.302;14.294;2023-11-25T11:40:23;4.00;99.90
11107;DHT22;5607;48.302;14.294;2023-11-25T11:43:14;4.20;99.90
11107;DHT22;5607;48.302;14.294;2023-11-25T11:46:04;4.20;99.90
11107;DHT22;5607;48.302;14.294;2023-11-25T11:48:51;4.00;99.90
11107;DHT22;5607;48.302;14.294;2023-11-25T11:51:44;4.10;99.90
11107;DHT22;5607;48.302;14.294;2023-11-25T11:54:43;4.00;99.90
11107;DHT22;5607;48.302;14.294;2023-11-25T11:57:30;4.20;99.90
11107;DHT22;5607;48.302;14.294;2023-11-25T12:00:16;4.20;99.90
11107;DHT22;5607;48.302;14.294;2023-11-25T12:03:02;4.10;99.90
11107;DHT22;5607;48.302;14.294;2023-11-25T12:05:49;3.90;99.90
11107;DHT22;5607;48.302;14.294;2023-11-25T12:08:37;4.00;99.90
11107;DHT22;5607;48.302;14.294;2023-11-25T12:11:23;4.20;99.90
11107;DHT22;5607;48.302;14.294;2023-11-25T12:14:10;4.20;99.90
11107;DHT22;5607;48.302;14.294;2023-11-25T12:16:56;3.90;99.90
11107;DHT22;5607;48.302;14.294;2023-11-25T12:19:42;3.90;99.90
11107;DHT22;5607;48.302;14.294;2023-11-25T12:22:29;4.10;99.90
11107;DHT22;5607;48.302;14.294;2023-11-25T12:25:15;4.20;99.90
11107;DHT22;5607;48.302;14.294;2023-11-25T12:30:51;4.30;99.90
11107;DHT22;5607;48.302;14.294;2023-11-25T12:33:38;4.30;99.90
11107;DHT22;5607;48.302;14.294;2023-11-25T12:36:25;4.40;99.90
11107;DHT22;5607;48.302;14.294;2023-11-25T12:39:11;4.40;99.90
11107;DHT22;5607;48.302;14.294;2023-11-25T12:42:01;4.10;99.90
11107;DHT22;5607;48.302;14.294;2023-11-25T12:44:47;3.90;99.90
11107;DHT22;5607;48.302;14.294;2023-11-25T12:47:47;3.60;99.90
11107;DHT22;5607;48.302;14.294;2023-11-25T12:53:54;4.10;99.90
11107;DHT22;5607;48.302;14.294;2023-11-25T12:56:40;4.20;99.90
11107;DHT22;5607;48.302;14.294;2023-11-25T12:59:28;4.10;99.90
11107;DHT22;5607;48.302;14.294;2023-11-25T13:02:15;3.90;99.90
11107;DHT22;5607;48.302;14.294;2023-11-25T13:05:04;3.80;99.90
11107;DHT22;5607;48.302;14.294;2023-11-25T13:07:50;3.90;99.90
11107;DHT22;5607;48.302;14.294;2023-11-25T13:10:37;4.10;99.90
11107;DHT22;5607;48.302;14.294;2023-11-25T13:13:26;4.30;99.90
11107;DHT22;5607;48.302;14.294;2023-11-25T13:16:12;4.00;99.90
11107;DHT22;5607;48.302;14.294;2023-11-25T13:18:58;4.10;99.90
11107;DHT22;5607;48.302;14.294;2023-11-25T13:21:45;4.30;99.90
11107;DHT22;5607;48.302;14.294;2023-11-25T13:24:31;4.20;99.90
11107;DHT22;5607;48.302;14.294;2023-11-25T13:27:18;4.20;99.90
11107;DHT22;5607;48.302;14.294;2023-11-25T13:30:04;4.30;99.90
11107;DHT22;5607;48.302;14.294;2023-11-25T13:32:52;4.00;99.90
11107;DHT22;5607;48.302;14.294;2023-11-25T13:35:39;3.90;99.90
11107;DHT22;5607;48.302;14.294;2023-11-25T13:38:26;4.10;99.90
11107;DHT22;5607;48.302;14.294;2023-11-25T13:41:12;4.00;99.90
11107;DHT22;5607;48.302;14.294;2023-11-25T13:43:58;4.00;99.90
11107;DHT22;5607;48.302;14.294;2023-11-25T13:46:45;3.90;99.90
11107;DHT22;5607;48.302;14.294;2023-11-25T13:49:31;4.00;99.90
11107;DHT22;5607;48.302;14.294;2023-11-25T13:52:19;4.10;99.90
11107;DHT22;5607;48.302;14.294;2023-11-25T13:55:06;4.00;99.90
11107;DHT22;5607;48.302;14.294;2023-11-25T13:57:52;3.80;99.90
11107;DHT22;5607;48.302;14.294;2023-11-25T14:00:39;3.70;99.90
11107;DHT22;5607;48.302;14.294;2023-11-25T14:03:26;3.60;99.90
11107;DHT22;5607;48.302;14.294;2023-11-25T14:06:12;3.70;99.90
11107;DHT22;5607;48.302;14.294;2023-11-25T14:08:59;3.80;99.90
11107;DHT22;5607;48.302;14.294;2023-11-25T14:11:45;3.90;99.90
11107;DHT22;5607;48.302;14.294;2023-11-25T14:14:31;3.70;99.90
11107;DHT22;5607;48.302;14.294;2023-11-25T14:17:17;3.50;99.90
11107;DHT22;5607;48.302;14.294;2023-11-25T14:20:04;3.50;99.90
11107;DHT22;5607;48.302;14.294;2023-11-25T14:23:01;3.40;99.90
11107;DHT22;5607;48.302;14.294;2023-11-25T14:25:50;3.50;99.90
11107;DHT22;5607;48.302;14.294;2023-11-25T14:28:36;3.70;99.90
11107;DHT22;5607;48.302;14.294;2023-11-25T14:31:24;3.70;99.90
11107;DHT22;5607;48.302;14.294;2023-11-25T14:34:10;3.90;99.90
11107;DHT22;5607;48.302;14.294;2023-11-25T14:36:57;3.80;99.90
11107;DHT22;5607;48.302;14.294;2023-11-25T14:39:43;3.70;99.90
11107;DHT22;5607;48.302;14.294;2023-11-25T14:42:29;3.70;99.90
11107;DHT22;5607;48.302;14.294;2023-11-25T14:45:17;3.60;99.90
11107;DHT22;5607;48.302;14.294;2023-11-25T14:48:03;3.60;99.90
11107;DHT22;5607;48.302;14.294;2023-11-25T14:50:51;3.60;99.90
11107;DHT22;5607;48.302;14.294;2023-11-25T14:53:38;3.70;99.90
11107;DHT22;5607;48.302;14.294;2023-11-25T14:56:25;3.60;99.90
11107;DHT22;5607;48.302;14.294;2023-11-25T14:59:13;3.60;99.90
11107;DHT22;5607;48.302;14.294;2023-11-25T15:02:01;3.70;99.90
11107;DHT22;5607;48.302;14.294;2023-11-25T15:04:47;3.50;99.90
11107;DHT22;5607;48.302;14.294;2023-11-25T15:07:35;3.60;99.90
11107;DHT22;5607;48.302;14.294;2023-11-25T15:10:21;3.70;99.90
11107;DHT22;5607;48.302;14.294;2023-11-25T15:13:11;3.60;99.90
11107;DHT22;5607;48.302;14.294;2023-11-25T15:15:57;3.60;99.90
11107;DHT22;5607;48.302;14.294;2023-11-25T15:18:43;3.40;99.90
11107;DHT22;5607;48.302;14.294;2023-11-25T15:21:29;3.30;99.90
11107;DHT22;5607;48.302;14.294;2023-11-25T15:24:15;3.30;99.90
11107;DHT22;5607;48.302;14.294;2023-11-25T15:27:03;3.30;99.90
11107;DHT22;5607;48.302;14.294;2023-11-25T15:30:03;3.30;99.90
11107;DHT22;5607;48.302;14.294;2023-11-25T15:32:55;3.40;99.90
11107;DHT22;5607;48.302;14.294;2023-11-25T15:35:42;3.30;99.90
11107;DHT22;5607;48.302;14.294;2023-11-25T15:38:28;3.20;1.00
11107;DHT22;5607;48.302;14.294;2023-11-25T15:41:15;3.00;1.00
11107;DHT22;5607;48.302;14.294;2023-11-25T15:44:01;2.90;1.00
11107;DHT22;5607;48.302;14.294;2023-11-25T15:46:47;2.90;1.00
11107;DHT22;5607;48.302;14.294;2023-11-25T15:49:34;3.20;1.00
11107;DHT22;5607;48.302;14.294;2023-11-25T15:52:20;3.10;1.00
11107;DHT22;5607;48.302;14.294;2023-11-25T15:55:06;3.00;1.00
11107;DHT22;5607;48.302;14.294;2023-11-25T15:57:57;3.10;1.00
11107;DHT22;5607;48.302;14.294;2023-11-25T16:00:44;3.10;1.00
11107;DHT22;5607;48.302;14.294;2023-11-25T16:03:34;3.10;1.00
11107;DHT22;5607;48.302;14.294;2023-11-25T16:06:20;3.20;1.00
11107;DHT22;5607;48.302;14.294;2023-11-25T16:09:06;3.00;1.00
11107;DHT22;5607;48.302;14.294;2023-11-25T16:11:54;2.90;1.00
11107;DHT22;5607;48.302;14.294;2023-11-25T16:14:40;2.90;1.00
11107;DHT22;5607;48.302;14.294;2023-11-25T16:17:26;3.00;1.00
11107;DHT22;5607;48.302;14.294;2023-11-25T16:20:13;3.00;1.00
11107;DHT22;5607;48.302;14.294;2023-11-25T16:23:01;3.00;1.00
11107;DHT22;5607;48.302;14.294;2023-11-25T16:25:48;3.00;1.00
11107;DHT22;5607;48.302;14.294;2023-11-25T16:28:34;2.90;1.00
11107;DHT22;5607;48.302;14.294;2023-11-25T16:31:21;2.80;1.00
11107;DHT22;5607;48.302;14.294;2023-11-25T16:34:08;2.80;1.00
11107;DHT22;5607;48.302;14.294;2023-11-25T16:36:58;2.80;1.00
11107;DHT22;5607;48.302;14.294;2023-11-25T16:39:45;2.80;1.00
11107;DHT22;5607;48.302;14.294;2023-11-25T16:42:31;2.70;1.00
11107;DHT22;5607;48.302;14.294;2023-11-25T16:45:17;2.80;1.00
11107;DHT22;5607;48.302;14.294;2023-11-25T16:48:05;2.70;1.00
11107;DHT22;5607;48.302;14.294;2023-11-25T16:50:51;2.70;1.00
11107;DHT22;5607;48.302;14.294;2023-11-25T16:53:37;2.80;1.00
11107;DHT22;5607;48.302;14.294;2023-11-25T16:56:24;2.70;1.00
11107;DHT22;5607;48.302;14.294;2023-11-25T16:59:10;2.50;1.00
11107;DHT22;5607;48.302;14.294;2023-11-25T17:01:56;2.50;1.00
11107;DHT22;5607;48.302;14.294;2023-11-25T17:04:43;2.40;1.00
11107;DHT22;5607;48.302;14.294;2023-11-25T17:07:29;2.50;1.00
11107;DHT22;5607;48.302;14.294;2023-11-25T17:10:18;2.50;1.00
11107;DHT22;5607;48.302;14.294;2023-11-25T17:13:05;2.50;1.00
11107;DHT22;5607;48.302;14.294;2023-11-25T17:15:53;2.60;1.00
11107;DHT22;5607;48.302;14.294;2023-11-25T17:18:40;2.70;1.00
11107;DHT22;5607;48.302;14.294;2023-11-25T17:21:27;2.80;1.00
11107;DHT22;5607;48.302;14.294;2023-11-25T17:24:14;2.90;1.00
11107;DHT22;5607;48.302;14.294;2023-11-25T17:27:00;3.00;1.00
11107;DHT22;5607;48.302;14.294;2023-11-25T17:29:47;3.00;1.00
11107;DHT22;5607;48.302;14.294;2023-11-25T17:32:33;3.00;1.00
11107;DHT22;5607;48.302;14.294;2023-11-25T17:35:20;3.00;1.00
11107;DHT22;5607;48.302;14.294;2023-11-25T17:38:07;3.10;1.00
11107;DHT22;5607;48.302;14.294;2023-11-25T17:40:53;3.10;1.00
11107;DHT22;5607;48.302;14.294;2023-11-25T17:43:39;3.10;1.00
11107;DHT22;5607;48.302;14.294;2023-11-25T17:46:25;3.10;1.00
11107;DHT22;5607;48.302;14.294;2023-11-25T17:49:12;3.20;1.00
11107;DHT22;5607;48.302;14.294;2023-11-25T17:51:58;3.20;1.00
11107;DHT22;5607;48.302;14.294;2023-11-25T17:54:44;3.20;1.00
11107;DHT22;5607;48.302;14.294;2023-11-25T17:57:31;3.20;1.00
11107;DHT22;5607;48.302;14.294;2023-11-25T18:00:18;3.30;1.00
11107;DHT22;5607;48.302;14.294;2023-11-25T18:03:06;3.40;1.00
11107;DHT22;5607;48.302;14.294;2023-11-25T18:05:53;3.40;1.00
11107;DHT22;5607;48.302;14.294;2023-11-25T18:08:39;3.40;1.00
11107;DHT22;5607;48.302;14.294;2023-11-25T18:11:27;3.30;1.00
11107;DHT22;5607;48.302;14.294;2023-11-25T18:14:20;3.30;1.00